sensor_id;sensor_type;location;lat;lon;timestamp;P1;durP1;ratioP1;P2;durP2;ratioP2
59728;SDS011;45588;51.598;5.618;2022-11-11T00:01:15;15.50;;;6.78;;
59728;SDS011;45588;51.598;5.618;2022-11-11T00:03:42;18.05;;;12.20;;
59728;SDS011;45588;51.598;5.618;2022-11-11T00:06:17;12.13;;;6.57;;
59728;SDS011;45588;51.598;5.618;2022-11-11T00:08:45;12.82;;;7.20;;
59728;SDS011;45588;51.598;5.618;2022-11-11T00:11:11;11.45;;;6.72;;
59728;SDS011;45588;51.598;5.618;2022-11-11T00:13:38;14.88;;;6.40;;
59728;SDS011;45588;51.598;5.618;2022-11-11T00:16:05;18.20;;;12.38;;
59728;SDS011;45588;51.598;5.618;2022-11-11T00:18:32;9.63;;;6.32;;
59728;SDS011;45588;51.598;5.618;2022-11-11T00:21:16;17.95;;;13.88;;
59728;SDS011;45588;51.598;5.618;2022-11-11T00:24:24;13.43;;;7.03;;
59728;SDS011;45588;51.598;5.618;2022-11-11T00:27:10;18.05;;;7.78;;
59728;SDS011;45588;51.598;5.618;2022-11-11T00:29:36;18.58;;;9.70;;
59728;SDS011;45588;51.598;5.618;2022-11-11T00:32:02;16.13;;;8.20;;
59728;SDS011;45588;51.598;5.618;2022-11-11T00:34:47;19.85;;;10.02;;
59728;SDS011;45588;51.598;5.618;2022-11-11T00:37:32;15.82;;;8.95;;
59728;SDS011;45588;51.598;5.618;2022-11-11T00:39:58;17.08;;;9.13;;
59728;SDS011;45588;51.598;5.618;2022-11-11T00:42:23;18.35;;;8.57;;
59728;SDS011;45588;51.598;5.618;2022-11-11T00:44:49;18.48;;;8.77;;
59728;SDS011;45588;51.598;5.618;2022-11-11T00:47:14;15.95;;;8.60;;
59728;SDS011;45588;51.598;5.618;2022-11-11T00:49:58;16.02;;;8.98;;
59728;SDS011;45588;51.598;5.618;2022-11-11T00:52:45;13.20;;;8.43;;
59728;SDS011;45588;51.598;5.618;2022-11-11T00:55:11;13.52;;;9.02;;
59728;SDS011;45588;51.598;5.618;2022-11-11T00:57:37;15.43;;;9.13;;
59728;SDS011;45588;51.598;5.618;2022-11-11T01:00:03;15.82;;;9.00;;
59728;SDS011;45588;51.598;5.618;2022-11-11T01:02:29;14.82;;;9.70;;
59728;SDS011;45588;51.598;5.618;2022-11-11T01:04:54;15.90;;;9.25;;
59728;SDS011;45588;51.598;5.618;2022-11-11T01:07:20;17.92;;;9.63;;
59728;SDS011;45588;51.598;5.618;2022-11-11T01:09:45;20.10;;;10.60;;
59728;SDS011;45588;51.598;5.618;2022-11-11T01:12:10;18.25;;;11.10;;
59728;SDS011;45588;51.598;5.618;2022-11-11T01:14:36;22.88;;;20.20;;
59728;SDS011;45588;51.598;5.618;2022-11-11T01:17:01;16.60;;;10.15;;
59728;SDS011;45588;51.598;5.618;2022-11-11T01:19:28;17.77;;;9.63;;
59728;SDS011;45588;51.598;5.618;2022-11-11T01:21:54;18.30;;;10.18;;
59728;SDS011;45588;51.598;5.618;2022-11-11T01:24:19;18.55;;;10.18;;
59728;SDS011;45588;51.598;5.618;2022-11-11T01:26:45;18.85;;;10.75;;
59728;SDS011;45588;51.598;5.618;2022-11-11T01:29:10;18.58;;;10.27;;
59728;SDS011;45588;51.598;5.618;2022-11-11T01:31:35;16.13;;;9.93;;
59728;SDS011;45588;51.598;5.618;2022-11-11T01:34:00;21.83;;;11.63;;
59728;SDS011;45588;51.598;5.618;2022-11-11T01:36:26;21.73;;;11.52;;
59728;SDS011;45588;51.598;5.618;2022-11-11T01:38:58;19.83;;;10.23;;
59728;SDS011;45588;51.598;5.618;2022-11-11T01:41:34;19.77;;;10.68;;
59728;SDS011;45588;51.598;5.618;2022-11-11T01:46:36;19.70;;;11.13;;
59728;SDS011;45588;51.598;5.618;2022-11-11T01:51:52;19.40;;;10.70;;
59728;SDS011;45588;51.598;5.618;2022-11-11T01:54:44;19.83;;;11.38;;
59728;SDS011;45588;51.598;5.618;2022-11-11T01:57:25;23.85;;;21.33;;
59728;SDS011;45588;51.598;5.618;2022-11-11T02:00:00;15.48;;;11.85;;
59728;SDS011;45588;51.598;5.618;2022-11-11T02:02:32;22.67;;;9.38;;
59728;SDS011;45588;51.598;5.618;2022-11-11T02:05:02;19.60;;;10.25;;
59728;SDS011;45588;51.598;5.618;2022-11-11T02:07:47;20.70;;;10.10;;
59728;SDS011;45588;51.598;5.618;2022-11-11T02:10:12;21.63;;;18.05;;
59728;SDS011;45588;51.598;5.618;2022-11-11T02:12:38;17.90;;;10.98;;
59728;SDS011;45588;51.598;5.618;2022-11-11T02:15:22;14.48;;;9.43;;
59728;SDS011;45588;51.598;5.618;2022-11-11T02:17:48;17.70;;;10.13;;
59728;SDS011;45588;51.598;5.618;2022-11-11T02:20:14;20.02;;;10.20;;
59728;SDS011;45588;51.598;5.618;2022-11-11T02:22:48;16.83;;;9.60;;
59728;SDS011;45588;51.598;5.618;2022-11-11T02:25:20;16.25;;;10.98;;
59728;SDS011;45588;51.598;5.618;2022-11-11T02:27:49;24.00;;;20.40;;
59728;SDS011;45588;51.598;5.618;2022-11-11T02:30:18;25.15;;;10.38;;
59728;SDS011;45588;51.598;5.618;2022-11-11T02:32:46;20.33;;;10.52;;
59728;SDS011;45588;51.598;5.618;2022-11-11T02:37:58;20.98;;;10.27;;
59728;SDS011;45588;51.598;5.618;2022-11-11T02:43:27;19.35;;;9.88;;
59728;SDS011;45588;51.598;5.618;2022-11-11T02:45:53;20.33;;;10.68;;
59728;SDS011;45588;51.598;5.618;2022-11-11T02:48:18;16.75;;;9.73;;
59728;SDS011;45588;51.598;5.618;2022-11-11T02:50:44;27.17;;;18.85;;
59728;SDS011;45588;51.598;5.618;2022-11-11T02:53:09;20.90;;;11.30;;
59728;SDS011;45588;51.598;5.618;2022-11-11T02:55:35;17.70;;;10.45;;
59728;SDS011;45588;51.598;5.618;2022-11-11T02:58:00;17.75;;;9.88;;
59728;SDS011;45588;51.598;5.618;2022-11-11T03:00:25;18.98;;;10.93;;
59728;SDS011;45588;51.598;5.618;2022-11-11T03:02:51;18.23;;;10.68;;
59728;SDS011;45588;51.598;5.618;2022-11-11T03:05:16;18.25;;;9.18;;
59728;SDS011;45588;51.598;5.618;2022-11-11T03:07:42;22.50;;;19.80;;
59728;SDS011;45588;51.598;5.618;2022-11-11T03:10:07;26.50;;;20.52;;
59728;SDS011;45588;51.598;5.618;2022-11-11T03:12:33;16.23;;;9.65;;
59728;SDS011;45588;51.598;5.618;2022-11-11T03:14:58;19.42;;;14.27;;
59728;SDS011;45588;51.598;5.618;2022-11-11T03:17:23;26.45;;;19.67;;
59728;SDS011;45588;51.598;5.618;2022-11-11T03:20:10;16.00;;;10.13;;
59728;SDS011;45588;51.598;5.618;2022-11-11T03:25:30;21.83;;;19.35;;
59728;SDS011;45588;51.598;5.618;2022-11-11T03:28:06;16.70;;;9.60;;
59728;SDS011;45588;51.598;5.618;2022-11-11T03:30:32;17.13;;;10.15;;
59728;SDS011;45588;51.598;5.618;2022-11-11T03:32:58;17.25;;;9.40;;
59728;SDS011;45588;51.598;5.618;2022-11-11T03:35:24;19.50;;;9.27;;
59728;SDS011;45588;51.598;5.618;2022-11-11T03:37:49;18.00;;;9.13;;
59728;SDS011;45588;51.598;5.618;2022-11-11T03:40:33;21.02;;;9.40;;
59728;SDS011;45588;51.598;5.618;2022-11-11T03:42:58;24.15;;;19.13;;
59728;SDS011;45588;51.598;5.618;2022-11-11T03:45:24;18.38;;;9.25;;
59728;SDS011;45588;51.598;5.618;2022-11-11T03:47:49;17.42;;;9.68;;
59728;SDS011;45588;51.598;5.618;2022-11-11T03:50:14;16.73;;;9.32;;
59728;SDS011;45588;51.598;5.618;2022-11-11T03:52:40;17.25;;;10.23;;
59728;SDS011;45588;51.598;5.618;2022-11-11T03:55:07;21.08;;;18.55;;
59728;SDS011;45588;51.598;5.618;2022-11-11T03:57:32;14.43;;;9.07;;
59728;SDS011;45588;51.598;5.618;2022-11-11T03:59:58;16.17;;;8.88;;
59728;SDS011;45588;51.598;5.618;2022-11-11T04:02:23;20.58;;;18.38;;
59728;SDS011;45588;51.598;5.618;2022-11-11T04:05:07;17.80;;;10.05;;
59728;SDS011;45588;51.598;5.618;2022-11-11T04:07:51;11.77;;;8.30;;
59728;SDS011;45588;51.598;5.618;2022-11-11T04:10:35;17.08;;;9.93;;
59728;SDS011;45588;51.598;5.618;2022-11-11T04:13:00;17.70;;;8.43;;
59728;SDS011;45588;51.598;5.618;2022-11-11T04:15:45;14.48;;;9.27;;
59728;SDS011;45588;51.598;5.618;2022-11-11T04:18:29;12.80;;;8.73;;
59728;SDS011;45588;51.598;5.618;2022-11-11T04:21:13;14.82;;;9.52;;
59728;SDS011;45588;51.598;5.618;2022-11-11T04:23:57;17.77;;;9.23;;
59728;SDS011;45588;51.598;5.618;2022-11-11T04:26:22;23.08;;;19.90;;
59728;SDS011;45588;51.598;5.618;2022-11-11T04:28:48;19.35;;;9.77;;
59728;SDS011;45588;51.598;5.618;2022-11-11T04:31:32;16.50;;;9.77;;
59728;SDS011;45588;51.598;5.618;2022-11-11T04:33:57;21.80;;;10.10;;
59728;SDS011;45588;51.598;5.618;2022-11-11T04:36:22;18.85;;;8.75;;
59728;SDS011;45588;51.598;5.618;2022-11-11T04:38:47;17.00;;;9.38;;
59728;SDS011;45588;51.598;5.618;2022-11-11T04:41:31;19.38;;;9.88;;
59728;SDS011;45588;51.598;5.618;2022-11-11T04:43:56;14.85;;;9.50;;
59728;SDS011;45588;51.598;5.618;2022-11-11T04:46:40;20.00;;;9.20;;
59728;SDS011;45588;51.598;5.618;2022-11-11T04:49:05;20.05;;;10.65;;
59728;SDS011;45588;51.598;5.618;2022-11-11T04:51:31;22.77;;;18.80;;
59728;SDS011;45588;51.598;5.618;2022-11-11T04:54:16;17.08;;;8.63;;
59728;SDS011;45588;51.598;5.618;2022-11-11T04:56:41;15.35;;;9.30;;
59728;SDS011;45588;51.598;5.618;2022-11-11T04:59:14;16.48;;;9.38;;
59728;SDS011;45588;51.598;5.618;2022-11-11T05:01:40;14.80;;;9.48;;
59728;SDS011;45588;51.598;5.618;2022-11-11T05:04:24;16.38;;;9.70;;
59728;SDS011;45588;51.598;5.618;2022-11-11T05:06:49;17.77;;;8.48;;
59728;SDS011;45588;51.598;5.618;2022-11-11T05:09:33;14.38;;;8.40;;
59728;SDS011;45588;51.598;5.618;2022-11-11T05:11:58;21.17;;;18.35;;
59728;SDS011;45588;51.598;5.618;2022-11-11T05:14:23;15.75;;;11.93;;
59728;SDS011;45588;51.598;5.618;2022-11-11T05:17:07;16.20;;;8.45;;
59728;SDS011;45588;51.598;5.618;2022-11-11T05:19:51;16.85;;;13.27;;
59728;SDS011;45588;51.598;5.618;2022-11-11T05:22:39;12.63;;;8.57;;
59728;SDS011;45588;51.598;5.618;2022-11-11T05:25:05;13.77;;;8.57;;
59728;SDS011;45588;51.598;5.618;2022-11-11T05:27:50;19.88;;;17.63;;
59728;SDS011;45588;51.598;5.618;2022-11-11T05:30:16;13.93;;;8.50;;
59728;SDS011;45588;51.598;5.618;2022-11-11T05:32:42;14.57;;;8.68;;
59728;SDS011;45588;51.598;5.618;2022-11-11T05:35:08;17.67;;;10.27;;
59728;SDS011;45588;51.598;5.618;2022-11-11T05:37:34;20.50;;;9.05;;
59728;SDS011;45588;51.598;5.618;2022-11-11T05:39:59;19.67;;;9.60;;
59728;SDS011;45588;51.598;5.618;2022-11-11T05:42:25;16.63;;;9.20;;
59728;SDS011;45588;51.598;5.618;2022-11-11T05:44:50;22.10;;;19.75;;
59728;SDS011;45588;51.598;5.618;2022-11-11T05:47:15;17.73;;;9.10;;
59728;SDS011;45588;51.598;5.618;2022-11-11T05:49:41;19.73;;;9.50;;
59728;SDS011;45588;51.598;5.618;2022-11-11T05:52:08;17.42;;;9.23;;
59728;SDS011;45588;51.598;5.618;2022-11-11T05:54:34;26.08;;;20.80;;
59728;SDS011;45588;51.598;5.618;2022-11-11T05:57:00;18.73;;;10.63;;
59728;SDS011;45588;51.598;5.618;2022-11-11T05:59:25;18.25;;;9.90;;
59728;SDS011;45588;51.598;5.618;2022-11-11T06:01:50;18.40;;;10.35;;
59728;SDS011;45588;51.598;5.618;2022-11-11T06:04:16;15.20;;;9.65;;
59728;SDS011;45588;51.598;5.618;2022-11-11T06:06:41;21.80;;;18.70;;
59728;SDS011;45588;51.598;5.618;2022-11-11T06:09:06;23.92;;;11.20;;
59728;SDS011;45588;51.598;5.618;2022-11-11T06:11:32;25.60;;;10.82;;
59728;SDS011;45588;51.598;5.618;2022-11-11T06:13:57;22.63;;;11.52;;
59728;SDS011;45588;51.598;5.618;2022-11-11T06:16:23;24.77;;;11.07;;
59728;SDS011;45588;51.598;5.618;2022-11-11T06:18:49;36.22;;;12.27;;
59728;SDS011;45588;51.598;5.618;2022-11-11T06:21:15;22.38;;;11.18;;
59728;SDS011;45588;51.598;5.618;2022-11-11T06:23:41;28.13;;;24.15;;
59728;SDS011;45588;51.598;5.618;2022-11-11T06:26:06;20.02;;;11.90;;
59728;SDS011;45588;51.598;5.618;2022-11-11T06:28:38;19.10;;;10.85;;
59728;SDS011;45588;51.598;5.618;2022-11-11T06:31:13;22.38;;;12.15;;
59728;SDS011;45588;51.598;5.618;2022-11-11T06:33:41;24.05;;;11.05;;
59728;SDS011;45588;51.598;5.618;2022-11-11T06:36:07;30.83;;;25.92;;
59728;SDS011;45588;51.598;5.618;2022-11-11T06:38:34;21.83;;;11.80;;
59728;SDS011;45588;51.598;5.618;2022-11-11T06:41:00;22.85;;;12.30;;
59728;SDS011;45588;51.598;5.618;2022-11-11T06:43:25;23.95;;;11.82;;
59728;SDS011;45588;51.598;5.618;2022-11-11T06:45:51;20.42;;;10.95;;
59728;SDS011;45588;51.598;5.618;2022-11-11T06:48:17;23.50;;;11.70;;
59728;SDS011;45588;51.598;5.618;2022-11-11T06:50:43;22.33;;;12.65;;
59728;SDS011;45588;51.598;5.618;2022-11-11T06:53:09;21.25;;;11.85;;
59728;SDS011;45588;51.598;5.618;2022-11-11T06:55:36;27.27;;;11.43;;
59728;SDS011;45588;51.598;5.618;2022-11-11T06:58:08;21.63;;;10.93;;
59728;SDS011;45588;51.598;5.618;2022-11-11T07:00:41;21.85;;;12.15;;
59728;SDS011;45588;51.598;5.618;2022-11-11T07:03:08;20.45;;;11.13;;
59728;SDS011;45588;51.598;5.618;2022-11-11T07:05:35;17.23;;;8.88;;
59728;SDS011;45588;51.598;5.618;2022-11-11T07:08:04;19.17;;;10.57;;
59728;SDS011;45588;51.598;5.618;2022-11-11T07:10:32;19.85;;;10.80;;
59728;SDS011;45588;51.598;5.618;2022-11-11T07:12:58;25.40;;;11.20;;
59728;SDS011;45588;51.598;5.618;2022-11-11T07:15:24;32.15;;;25.98;;
59728;SDS011;45588;51.598;5.618;2022-11-11T07:17:49;18.75;;;10.15;;
59728;SDS011;45588;51.598;5.618;2022-11-11T07:20:15;24.17;;;10.55;;
59728;SDS011;45588;51.598;5.618;2022-11-11T07:22:40;18.00;;;9.98;;
59728;SDS011;45588;51.598;5.618;2022-11-11T07:25:06;24.55;;;10.93;;
59728;SDS011;45588;51.598;5.618;2022-11-11T07:27:31;19.25;;;9.70;;
59728;SDS011;45588;51.598;5.618;2022-11-11T07:29:59;30.80;;;24.40;;
59728;SDS011;45588;51.598;5.618;2022-11-11T07:32:25;21.38;;;9.50;;
59728;SDS011;45588;51.598;5.618;2022-11-11T07:34:50;18.67;;;9.60;;
59728;SDS011;45588;51.598;5.618;2022-11-11T07:37:15;18.60;;;10.02;;
59728;SDS011;45588;51.598;5.618;2022-11-11T07:39:40;19.65;;;9.10;;
59728;SDS011;45588;51.598;5.618;2022-11-11T07:42:06;15.70;;;9.30;;
59728;SDS011;45588;51.598;5.618;2022-11-11T07:44:31;16.73;;;9.38;;
59728;SDS011;45588;51.598;5.618;2022-11-11T07:46:56;13.93;;;8.50;;
59728;SDS011;45588;51.598;5.618;2022-11-11T07:49:22;21.02;;;9.55;;
59728;SDS011;45588;51.598;5.618;2022-11-11T07:51:47;16.60;;;8.70;;
59728;SDS011;45588;51.598;5.618;2022-11-11T07:54:12;17.77;;;8.13;;
59728;SDS011;45588;51.598;5.618;2022-11-11T07:56:40;19.30;;;8.52;;
59728;SDS011;45588;51.598;5.618;2022-11-11T07:59:05;16.40;;;8.32;;
59728;SDS011;45588;51.598;5.618;2022-11-11T08:01:30;16.73;;;8.60;;
59728;SDS011;45588;51.598;5.618;2022-11-11T08:03:55;16.27;;;7.10;;
59728;SDS011;45588;51.598;5.618;2022-11-11T08:06:21;15.40;;;7.40;;
59728;SDS011;45588;51.598;5.618;2022-11-11T08:08:47;14.68;;;7.00;;
59728;SDS011;45588;51.598;5.618;2022-11-11T08:11:13;11.48;;;6.78;;
59728;SDS011;45588;51.598;5.618;2022-11-11T08:13:39;14.27;;;6.90;;
59728;SDS011;45588;51.598;5.618;2022-11-11T08:16:14;14.30;;;6.65;;
59728;SDS011;45588;51.598;5.618;2022-11-11T08:18:39;15.15;;;6.47;;
59728;SDS011;45588;51.598;5.618;2022-11-11T08:21:05;9.25;;;6.22;;
59728;SDS011;45588;51.598;5.618;2022-11-11T08:23:32;10.98;;;5.57;;
59728;SDS011;45588;51.598;5.618;2022-11-11T08:26:01;12.93;;;6.35;;
59728;SDS011;45588;51.598;5.618;2022-11-11T08:28:29;13.23;;;6.75;;
59728;SDS011;45588;51.598;5.618;2022-11-11T08:30:59;10.60;;;5.38;;
59728;SDS011;45588;51.598;5.618;2022-11-11T08:33:26;12.35;;;5.97;;
59728;SDS011;45588;51.598;5.618;2022-11-11T08:35:52;8.70;;;5.10;;
59728;SDS011;45588;51.598;5.618;2022-11-11T08:38:18;9.43;;;5.28;;
59728;SDS011;45588;51.598;5.618;2022-11-11T08:40:45;8.57;;;5.10;;
59728;SDS011;45588;51.598;5.618;2022-11-11T08:43:10;8.40;;;4.93;;
59728;SDS011;45588;51.598;5.618;2022-11-11T08:45:35;10.80;;;5.65;;
59728;SDS011;45588;51.598;5.618;2022-11-11T08:48:01;8.15;;;4.53;;
59728;SDS011;45588;51.598;5.618;2022-11-11T08:50:26;9.32;;;5.47;;
59728;SDS011;45588;51.598;5.618;2022-11-11T08:52:51;10.32;;;5.38;;
59728;SDS011;45588;51.598;5.618;2022-11-11T08:55:17;10.90;;;6.80;;
59728;SDS011;45588;51.598;5.618;2022-11-11T08:57:43;8.65;;;5.22;;
59728;SDS011;45588;51.598;5.618;2022-11-11T09:00:09;8.98;;;5.07;;
59728;SDS011;45588;51.598;5.618;2022-11-11T09:02:35;7.63;;;4.97;;
59728;SDS011;45588;51.598;5.618;2022-11-11T09:05:01;8.70;;;5.32;;
59728;SDS011;45588;51.598;5.618;2022-11-11T09:07:27;10.02;;;5.22;;
59728;SDS011;45588;51.598;5.618;2022-11-11T09:09:52;10.63;;;4.65;;
59728;SDS011;45588;51.598;5.618;2022-11-11T09:12:18;9.82;;;4.93;;
59728;SDS011;45588;51.598;5.618;2022-11-11T09:14:43;7.28;;;4.55;;
59728;SDS011;45588;51.598;5.618;2022-11-11T09:17:09;8.30;;;4.80;;
59728;SDS011;45588;51.598;5.618;2022-11-11T09:19:34;10.75;;;4.70;;
59728;SDS011;45588;51.598;5.618;2022-11-11T09:21:59;8.40;;;4.32;;
59728;SDS011;45588;51.598;5.618;2022-11-11T09:24:25;9.63;;;7.10;;
59728;SDS011;45588;51.598;5.618;2022-11-11T09:26:50;10.20;;;7.75;;
59728;SDS011;45588;51.598;5.618;2022-11-11T09:29:16;10.88;;;5.80;;
59728;SDS011;45588;51.598;5.618;2022-11-11T09:31:42;10.73;;;9.63;;
59728;SDS011;45588;51.598;5.618;2022-11-11T09:34:08;5.10;;;4.07;;
59728;SDS011;45588;51.598;5.618;2022-11-11T09:36:33;8.25;;;4.63;;
59728;SDS011;45588;51.598;5.618;2022-11-11T09:38:58;6.57;;;4.20;;
59728;SDS011;45588;51.598;5.618;2022-11-11T09:41:32;9.30;;;5.07;;
59728;SDS011;45588;51.598;5.618;2022-11-11T09:44:01;11.70;;;7.32;;
59728;SDS011;45588;51.598;5.618;2022-11-11T09:46:45;8.68;;;4.50;;
59728;SDS011;45588;51.598;5.618;2022-11-11T09:52:17;8.47;;;4.93;;
59728;SDS011;45588;51.598;5.618;2022-11-11T09:57:45;8.35;;;5.28;;
59728;SDS011;45588;51.598;5.618;2022-11-11T10:00:20;8.80;;;5.25;;
59728;SDS011;45588;51.598;5.618;2022-11-11T10:02:50;13.75;;;5.40;;
59728;SDS011;45588;51.598;5.618;2022-11-11T10:05:18;7.30;;;4.75;;
59728;SDS011;45588;51.598;5.618;2022-11-11T10:10:41;8.90;;;5.20;;
59728;SDS011;45588;51.598;5.618;2022-11-11T10:13:16;11.48;;;8.93;;
59728;SDS011;45588;51.598;5.618;2022-11-11T10:20:54;8.98;;;4.90;;
59728;SDS011;45588;51.598;5.618;2022-11-11T10:23:23;10.43;;;5.72;;
59728;SDS011;45588;51.598;5.618;2022-11-11T10:26:02;11.30;;;4.63;;
59728;SDS011;45588;51.598;5.618;2022-11-11T10:28:34;8.77;;;5.07;;
59728;SDS011;45588;51.598;5.618;2022-11-11T10:31:02;10.00;;;4.78;;
59728;SDS011;45588;51.598;5.618;2022-11-11T10:33:55;11.07;;;8.88;;
59728;SDS011;45588;51.598;5.618;2022-11-11T10:36:28;8.85;;;8.05;;
59728;SDS011;45588;51.598;5.618;2022-11-11T10:38:58;10.60;;;7.90;;
59728;SDS011;45588;51.598;5.618;2022-11-11T10:41:29;5.93;;;4.03;;
59728;SDS011;45588;51.598;5.618;2022-11-11T10:44:00;6.78;;;3.97;;
59728;SDS011;45588;51.598;5.618;2022-11-11T10:46:27;7.35;;;4.22;;
59728;SDS011;45588;51.598;5.618;2022-11-11T10:49:09;6.05;;;3.83;;
59728;SDS011;45588;51.598;5.618;2022-11-11T10:51:46;8.57;;;6.85;;
59728;SDS011;45588;51.598;5.618;2022-11-11T10:54:18;9.27;;;3.88;;
59728;SDS011;45588;51.598;5.618;2022-11-11T10:56:53;6.07;;;3.65;;
59728;SDS011;45588;51.598;5.618;2022-11-11T10:59:28;7.78;;;3.92;;
59728;SDS011;45588;51.598;5.618;2022-11-11T11:02:02;9.05;;;6.43;;
59728;SDS011;45588;51.598;5.618;2022-11-11T11:04:51;7.93;;;5.72;;
59728;SDS011;45588;51.598;5.618;2022-11-11T11:07:29;8.57;;;3.40;;
59728;SDS011;45588;51.598;5.618;2022-11-11T11:10:07;4.90;;;3.13;;
59728;SDS011;45588;51.598;5.618;2022-11-11T11:12:40;6.32;;;5.72;;
59728;SDS011;45588;51.598;5.618;2022-11-11T11:15:12;7.32;;;3.47;;
59728;SDS011;45588;51.598;5.618;2022-11-11T11:20:28;3.65;;;2.60;;
59728;SDS011;45588;51.598;5.618;2022-11-11T11:22:54;7.30;;;5.30;;
59728;SDS011;45588;51.598;5.618;2022-11-11T11:25:23;4.18;;;2.05;;
59728;SDS011;45588;51.598;5.618;2022-11-11T11:27:50;7.30;;;3.58;;
59728;SDS011;45588;51.598;5.618;2022-11-11T11:30:21;5.93;;;2.90;;
59728;SDS011;45588;51.598;5.618;2022-11-11T11:32:58;4.65;;;3.30;;
59728;SDS011;45588;51.598;5.618;2022-11-11T11:35:31;6.78;;;4.38;;
59728;SDS011;45588;51.598;5.618;2022-11-11T11:37:57;7.15;;;4.15;;
59728;SDS011;45588;51.598;5.618;2022-11-11T11:40:22;4.40;;;2.35;;
59728;SDS011;45588;51.598;5.618;2022-11-11T11:42:48;6.63;;;2.30;;
59728;SDS011;45588;51.598;5.618;2022-11-11T11:45:25;4.57;;;4.13;;
59728;SDS011;45588;51.598;5.618;2022-11-11T11:53:20;4.90;;;2.45;;
59728;SDS011;45588;51.598;5.618;2022-11-11T11:56:06;3.72;;;2.63;;
59728;SDS011;45588;51.598;5.618;2022-11-11T11:58:56;4.07;;;3.63;;
59728;SDS011;45588;51.598;5.618;2022-11-11T12:01:35;6.90;;;2.67;;
59728;SDS011;45588;51.598;5.618;2022-11-11T12:17:29;3.28;;;2.88;;
59728;SDS011;45588;51.598;5.618;2022-11-11T12:20:20;3.97;;;2.83;;
59728;SDS011;45588;51.598;5.618;2022-11-11T12:23:07;4.68;;;3.10;;
59728;SDS011;45588;51.598;5.618;2022-11-11T12:33:46;4.45;;;1.83;;
59728;SDS011;45588;51.598;5.618;2022-11-11T12:36:35;3.90;;;3.03;;
59728;SDS011;45588;51.598;5.618;2022-11-11T12:41:57;5.30;;;1.42;;
59728;SDS011;45588;51.598;5.618;2022-11-11T12:44:43;5.22;;;3.25;;
59728;SDS011;45588;51.598;5.618;2022-11-11T12:47:31;4.05;;;2.72;;
59728;SDS011;45588;51.598;5.618;2022-11-11T12:52:57;5.88;;;2.92;;
59728;SDS011;45588;51.598;5.618;2022-11-11T12:55:56;4.18;;;2.70;;
59728;SDS011;45588;51.598;5.618;2022-11-11T13:03:29;4.03;;;2.92;;
59728;SDS011;45588;51.598;5.618;2022-11-11T13:06:08;3.08;;;2.42;;
59728;SDS011;45588;51.598;5.618;2022-11-11T13:13:50;4.03;;;2.65;;
59728;SDS011;45588;51.598;5.618;2022-11-11T13:16:23;4.15;;;3.00;;
59728;SDS011;45588;51.598;5.618;2022-11-11T13:19:03;3.00;;;2.42;;
59728;SDS011;45588;51.598;5.618;2022-11-11T13:24:21;5.13;;;2.78;;
59728;SDS011;45588;51.598;5.618;2022-11-11T13:26:48;3.20;;;2.40;;
59728;SDS011;45588;51.598;5.618;2022-11-11T13:32:18;3.35;;;2.58;;
59728;SDS011;45588;51.598;5.618;2022-11-11T13:34:50;2.63;;;2.42;;
59728;SDS011;45588;51.598;5.618;2022-11-11T13:37:38;4.78;;;2.60;;
59728;SDS011;45588;51.598;5.618;2022-11-11T13:40:06;4.90;;;2.65;;
59728;SDS011;45588;51.598;5.618;2022-11-11T13:42:48;2.67;;;1.45;;
59728;SDS011;45588;51.598;5.618;2022-11-11T13:45:21;5.50;;;2.75;;
59728;SDS011;45588;51.598;5.618;2022-11-11T13:47:51;7.03;;;3.53;;
59728;SDS011;45588;51.598;5.618;2022-11-11T13:50:25;5.50;;;2.90;;
59728;SDS011;45588;51.598;5.618;2022-11-11T13:52:55;4.72;;;2.00;;
59728;SDS011;45588;51.598;5.618;2022-11-11T13:55:28;4.82;;;2.65;;
59728;SDS011;45588;51.598;5.618;2022-11-11T13:57:56;4.97;;;2.75;;
59728;SDS011;45588;51.598;5.618;2022-11-11T14:00:24;5.90;;;3.03;;
59728;SDS011;45588;51.598;5.618;2022-11-11T14:05:42;4.60;;;2.40;;
59728;SDS011;45588;51.598;5.618;2022-11-11T14:08:08;4.97;;;2.80;;
59728;SDS011;45588;51.598;5.618;2022-11-11T14:15:50;4.63;;;2.65;;
59728;SDS011;45588;51.598;5.618;2022-11-11T14:20:46;5.90;;;2.97;;
59728;SDS011;45588;51.598;5.618;2022-11-11T14:25:51;6.57;;;3.50;;
59728;SDS011;45588;51.598;5.618;2022-11-11T14:28:59;9.00;;;4.00;;
59728;SDS011;45588;51.598;5.618;2022-11-11T14:32:09;6.47;;;3.53;;
59728;SDS011;45588;51.598;5.618;2022-11-11T14:40:10;4.82;;;2.20;;
59728;SDS011;45588;51.598;5.618;2022-11-11T14:47:49;4.75;;;2.78;;
59728;SDS011;45588;51.598;5.618;2022-11-11T14:52:57;4.15;;;2.75;;
59728;SDS011;45588;51.598;5.618;2022-11-11T14:55:30;5.63;;;2.72;;
59728;SDS011;45588;51.598;5.618;2022-11-11T15:03:11;6.10;;;3.05;;
59728;SDS011;45588;51.598;5.618;2022-11-11T15:08:35;6.20;;;3.70;;
59728;SDS011;45588;51.598;5.618;2022-11-11T15:14:05;6.25;;;3.47;;
59728;SDS011;45588;51.598;5.618;2022-11-11T15:28:52;4.70;;;3.60;;
59728;SDS011;45588;51.598;5.618;2022-11-11T15:31:42;7.30;;;3.88;;
59728;SDS011;45588;51.598;5.618;2022-11-11T15:37:09;3.75;;;2.22;;
59728;SDS011;45588;51.598;5.618;2022-11-11T15:39:39;9.05;;;3.95;;
59728;SDS011;45588;51.598;5.618;2022-11-11T15:44:57;2.60;;;2.03;;
59728;SDS011;45588;51.598;5.618;2022-11-11T15:47:25;4.43;;;2.28;;
59728;SDS011;45588;51.598;5.618;2022-11-11T15:49:51;3.20;;;2.00;;
59728;SDS011;45588;51.598;5.618;2022-11-11T15:52:33;6.13;;;3.45;;
59728;SDS011;45588;51.598;5.618;2022-11-11T15:55:01;5.20;;;2.13;;
59728;SDS011;45588;51.598;5.618;2022-11-11T15:57:41;7.55;;;4.10;;
59728;SDS011;45588;51.598;5.618;2022-11-11T16:02:47;4.80;;;2.15;;
59728;SDS011;45588;51.598;5.618;2022-11-11T16:05:15;7.15;;;3.92;;
59728;SDS011;45588;51.598;5.618;2022-11-11T16:07:45;3.20;;;2.22;;
59728;SDS011;45588;51.598;5.618;2022-11-11T16:10:16;5.55;;;2.35;;
59728;SDS011;45588;51.598;5.618;2022-11-11T16:12:47;4.97;;;2.42;;
59728;SDS011;45588;51.598;5.618;2022-11-11T16:15:18;4.72;;;1.92;;
59728;SDS011;45588;51.598;5.618;2022-11-11T16:17:45;6.90;;;4.22;;
59728;SDS011;45588;51.598;5.618;2022-11-11T16:20:12;4.13;;;2.15;;
59728;SDS011;45588;51.598;5.618;2022-11-11T16:22:39;2.50;;;2.25;;
59728;SDS011;45588;51.598;5.618;2022-11-11T16:25:20;5.28;;;2.85;;
59728;SDS011;45588;51.598;5.618;2022-11-11T16:27:46;2.78;;;2.58;;
59728;SDS011;45588;51.598;5.618;2022-11-11T16:30:33;5.78;;;2.38;;
59728;SDS011;45588;51.598;5.618;2022-11-11T16:32:59;4.88;;;4.35;;
59728;SDS011;45588;51.598;5.618;2022-11-11T16:38:00;3.83;;;2.15;;
59728;SDS011;45588;51.598;5.618;2022-11-11T16:45:48;4.97;;;3.22;;
59728;SDS011;45588;51.598;5.618;2022-11-11T16:49:00;6.38;;;2.63;;
59728;SDS011;45588;51.598;5.618;2022-11-11T16:51:13;7.40;;;3.13;;
59728;SDS011;45588;51.598;5.618;2022-11-11T16:53:47;12.95;;;3.65;;
59728;SDS011;45588;51.598;5.618;2022-11-11T16:56:26;5.55;;;2.78;;
59728;SDS011;45588;51.598;5.618;2022-11-11T17:02:13;8.02;;;3.15;;
59728;SDS011;45588;51.598;5.618;2022-11-11T17:04:51;10.75;;;5.50;;
59728;SDS011;45588;51.598;5.618;2022-11-11T17:07:31;8.13;;;2.70;;
59728;SDS011;45588;51.598;5.618;2022-11-11T17:12:33;5.03;;;2.97;;
59728;SDS011;45588;51.598;5.618;2022-11-11T17:15:01;3.75;;;2.47;;
59728;SDS011;45588;51.598;5.618;2022-11-11T17:17:28;6.80;;;3.05;;
59728;SDS011;45588;51.598;5.618;2022-11-11T17:19:55;4.85;;;3.03;;
59728;SDS011;45588;51.598;5.618;2022-11-11T17:22:21;4.93;;;2.67;;
59728;SDS011;45588;51.598;5.618;2022-11-11T17:24:47;4.05;;;2.22;;
59728;SDS011;45588;51.598;5.618;2022-11-11T17:27:12;4.60;;;2.70;;